Time;durP1;ratioP1;P1;durP2;ratioP2;P2;SDS_P1;SDS_P2;PMS_P1;PMS_P2;Temp;Humidity;BMP_temperature;BMP_pressure;BME280_temperature;BME280_humidity;BME280_pressure;Samples;Min_cycle;Max_cycle;Signal;HPM_P1;HPM_P2
2022/04/08 00:01:03;;;;;;;;;0.33;0.33;;;;;13.42;52.90;99719.06;5023349;28;47192;-81
2022/04/08 00:03:29;;;;;;;;;0.33;0.00;;;;;13.45;53.24;99713.66;5025375;28;45688;-82
2022/04/08 00:05:57;;;;;;;;;1.00;0.00;;;;;13.56;52.46;99711.72;5006758;28;44912;-83
2022/04/08 00:08:23;;;;;;;;;1.33;1.00;;;;;13.48;52.92;99706.50;5023340;28;45578;-83
2022/04/08 00:10:48;;;;;;;;;0.67;0.67;;;;;13.49;53.14;99710.94;5025311;28;46953;-83
2022/04/08 00:13:15;;;;;;;;;0.00;0.00;;;;;13.56;53.08;99712.59;5024490;28;45850;-81
2022/04/08 00:15:40;;;;;;;;;1.00;0.00;;;;;13.56;52.63;99711.72;5025577;28;45528;-82
2022/04/08 00:18:08;;;;;;;;;1.33;1.00;;;;;13.73;52.78;99715.00;5025480;28;45517;-82
2022/04/08 00:20:34;;;;;;;;;0.00;0.00;;;;;13.63;52.86;99702.69;5025878;28;45923;-82
2022/04/08 00:23:03;;;;;;;;;0.67;0.67;;;;;13.64;52.92;99700.94;5025413;28;45433;-82
2022/04/08 00:25:28;;;;;;;;;2.00;0.00;;;;;13.65;52.53;99695.53;5024000;28;45547;-83
2022/04/08 00:27:53;;;;;;;;;1.00;1.00;;;;;13.61;52.77;99688.50;5022016;28;45484;-83
2022/04/08 00:30:19;;;;;;;;;0.67;0.67;;;;;13.65;51.22;99695.53;5024752;28;47033;-83
2022/04/08 00:32:44;;;;;;;;;1.00;1.00;;;;;13.60;52.96;99689.41;5023694;28;45812;-82
2022/04/08 00:35:10;;;;;;;;;1.33;0.00;;;;;13.67;53.15;99698.22;5024538;28;45377;-81
2022/04/08 00:37:36;;;;;;;;;1.00;1.00;;;;;13.64;52.39;99696.47;5023442;28;45961;-82
2022/04/08 00:40:02;;;;;;;;;0.00;0.00;;;;;13.75;52.87;99697.16;5006721;28;45057;-81
2022/04/08 00:42:28;;;;;;;;;0.00;0.00;;;;;13.62;52.79;99689.41;5003567;28;45473;-81
2022/04/08 00:44:53;;;;;;;;;0.00;0.00;;;;;13.64;53.21;99684.91;5003173;28;45528;-82
2022/04/08 00:47:18;;;;;;;;;1.00;0.00;;;;;13.68;52.83;99692.84;5005234;28;45391;-82
2022/04/08 00:49:44;;;;;;;;;0.00;0.00;;;;;13.64;53.03;99683.13;5004494;28;45428;-82
2022/04/08 00:52:10;;;;;;;;;1.00;1.00;;;;;13.71;53.15;99682.09;5007885;28;45343;-82
2022/04/08 00:54:37;;;;;;;;;0.00;0.00;;;;;13.74;53.22;99666.03;5009483;28;45663;-82
2022/04/08 00:57:03;;;;;;;;;0.00;0.00;;;;;13.76;52.80;99677.56;5008045;28;45520;-83
2022/04/08 00:59:30;;;;;;;;;1.00;1.00;;;;;13.85;53.29;99679.19;5008199;28;45155;-83
2022/04/08 01:01:58;;;;;;;;;0.00;0.00;;;;;13.96;53.17;99679.03;5008835;28;45537;-82
2022/04/08 01:04:27;;;;;;;;;2.00;1.00;;;;;13.75;53.18;99670.44;5011680;28;45373;-82
2022/04/08 01:06:53;;;;;;;;;3.33;2.00;;;;;13.80;53.34;99668.59;5006234;28;45844;-82
2022/04/08 01:09:19;;;;;;;;;0.00;0.00;;;;;13.82;53.58;99676.59;5005570;28;45474;-83
2022/04/08 01:11:44;;;;;;;;;1.00;1.00;;;;;13.82;53.32;99673.94;5007619;28;45471;-83
2022/04/08 01:14:16;;;;;;;;;0.00;0.00;;;;;14.01;53.17;99662.00;5007578;28;44829;-82
2022/04/08 01:16:42;;;;;;;;;0.67;0.67;;;;;13.85;52.80;99664.97;5004880;28;45990;-82
2022/04/08 01:19:08;;;;;;;;;0.00;0.00;;;;;13.85;53.33;99681.00;5003552;28;46650;-83
2022/04/08 01:21:33;;;;;;;;;0.67;0.67;;;;;13.84;53.25;99664.09;5002856;28;45432;-82
2022/04/08 01:24:03;;;;;;;;;1.00;1.00;;;;;13.92;53.69;99655.94;5003158;28;45482;-83
2022/04/08 01:26:28;;;;;;;;;0.67;0.67;;;;;13.76;52.76;99653.53;5005254;28;45402;-83
2022/04/08 01:28:55;;;;;;;;;1.00;1.00;;;;;13.86;53.53;99658.72;5002498;28;48427;-82
2022/04/08 01:31:21;;;;;;;;;1.00;1.00;;;;;13.79;53.40;99669.53;5003391;28;45398;-82
2022/04/08 01:33:46;;;;;;;;;0.00;0.00;;;;;13.71;53.81;99658.03;5002089;28;45356;-83
2022/04/08 01:36:12;;;;;;;;;0.00;0.00;;;;;13.80;53.88;99663.25;5003009;28;45448;-82
2022/04/08 01:38:38;;;;;;;;;2.00;1.00;;;;;13.76;53.28;99658.00;4986385;28;45894;-82
2022/04/08 01:41:03;;;;;;;;;1.00;0.00;;;;;13.77;53.51;99652.59;5002560;28;45502;-82
2022/04/08 01:43:28;;;;;;;;;2.00;0.00;;;;;13.77;53.48;99646.38;5003853;28;45477;-82
2022/04/08 01:45:54;;;;;;;;;1.00;0.33;;;;;13.76;53.48;99655.31;5007575;28;45605;-82
2022/04/08 01:48:19;;;;;;;;;1.00;1.00;;;;;13.79;53.36;99648.16;5010242;28;45420;-82
2022/04/08 01:50:45;;;;;;;;;1.00;1.00;;;;;13.80;53.27;99649.88;5005566;28;45394;-82
2022/04/08 01:53:13;;;;;;;;;0.33;0.33;;;;;13.77;53.82;99641.91;5006833;28;45537;-82
2022/04/08 01:55:46;;;;;;;;;0.00;0.00;;;;;13.81;53.70;99642.75;5008197;28;45413;-83
2022/04/08 01:58:11;;;;;;;;;0.00;0.00;;;;;13.79;53.40;99640.13;5006300;28;48275;-83
2022/04/08 02:07:22;;;;;;;;;0.00;0.00;;;;;13.83;53.29;99632.03;5009436;28;45403;-83
2022/04/08 02:09:48;;;;;;;;;0.00;0.00;;;;;13.69;53.44;99638.47;5008617;28;45517;-83
2022/04/08 02:12:13;;;;;;;;;1.00;0.00;;;;;13.65;53.43;99631.44;5008859;28;45519;-81
2022/04/08 02:14:39;;;;;;;;;1.00;1.00;;;;;13.68;53.54;99639.41;5007694;28;45413;-81
2022/04/08 02:17:04;;;;;;;;;0.00;0.00;;;;;13.63;53.62;99627.91;5006341;28;45724;-81
2022/04/08 02:19:30;;;;;;;;;0.00;0.00;;;;;13.63;53.68;99622.56;5007356;28;45577;-81
2022/04/08 02:21:57;;;;;;;;;0.33;0.00;;;;;13.72;53.65;99632.22;5006212;28;45099;-81
2022/04/08 02:24:24;;;;;;;;;0.00;0.00;;;;;13.74;53.62;99631.28;5005744;28;45427;-82
2022/04/08 02:26:49;;;;;;;;;1.00;1.00;;;;;13.74;53.23;99633.97;5004072;28;45399;-81
2022/04/08 02:29:15;;;;;;;;;1.00;1.00;;;;;13.69;53.59;99616.22;5006251;28;46717;-83
2022/04/08 02:31:40;;;;;;;;;1.67;1.00;;;;;13.75;53.59;99617.00;5003551;28;44740;-82
2022/04/08 02:34:06;;;;;;;;;0.67;0.67;;;;;13.71;53.70;99612.63;5005084;28;45414;-82
2022/04/08 02:36:31;;;;;;;;;0.00;0.00;;;;;13.71;53.99;99620.63;5004887;28;45465;-82
2022/04/08 02:38:57;;;;;;;;;0.00;0.00;;;;;13.79;53.87;99617.84;5005041;28;46306;-83
2022/04/08 02:41:22;;;;;;;;;0.00;0.00;;;;;13.73;53.90;99615.28;5006896;28;45582;-81
2022/04/08 02:43:48;;;;;;;;;1.00;1.00;;;;;13.75;53.73;99606.31;5024775;28;45723;-82
2022/04/08 02:46:14;;;;;;;;;0.67;0.00;;;;;13.82;53.78;99606.25;5007403;28;44835;-82
2022/04/08 02:48:39;;;;;;;;;0.67;0.67;;;;;13.83;53.96;99608.88;5006859;28;45628;-82
2022/04/08 02:51:05;;;;;;;;;1.00;1.00;;;;;13.95;53.74;99605.09;5026369;28;45450;-82
2022/04/08 02:53:31;;;;;;;;;0.00;0.00;;;;;13.83;53.87;99597.31;5024530;28;45455;-82
2022/04/08 02:55:57;;;;;;;;;2.67;1.33;;;;;13.79;53.66;99592.03;5005990;28;45399;-82
2022/04/08 02:58:22;;;;;;;;;0.33;0.33;;;;;13.80;54.19;99598.25;5024034;28;45298;-82
2022/04/08 03:00:48;;;;;;;;;2.33;1.00;;;;;13.84;54.35;99593.72;5006175;28;45390;-81
2022/04/08 03:03:14;;;;;;;;;0.00;0.00;;;;;13.85;54.37;99584.78;5024509;28;45798;-83
2022/04/08 03:05:39;;;;;;;;;1.00;1.00;;;;;13.85;54.28;99585.66;5007072;28;45514;-82
2022/04/08 03:08:05;;;;;;;;;1.00;1.00;;;;;13.82;54.39;99574.16;5007025;28;45484;-82
2022/04/08 03:10:31;;;;;;;;;1.33;1.00;;;;;13.78;54.23;99568.88;5025165;28;45455;-83
2022/04/08 03:12:56;;;;;;;;;0.00;0.00;;;;;13.86;54.49;99581.22;5007529;28;45471;-82
2022/04/08 03:15:21;;;;;;;;;1.00;1.00;;;;;13.83;54.62;99573.25;5006288;28;45307;-83
2022/04/08 03:17:49;;;;;;;;;2.00;0.33;;;;;13.89;54.55;99570.47;5005976;28;47168;-82
2022/04/08 03:20:21;;;;;;;;;2.00;0.00;;;;;14.09;54.14;99565.63;5006469;28;45662;-83
2022/04/08 03:22:46;;;;;;;;;1.33;0.67;;;;;13.86;54.51;99566.06;5009632;28;45462;-83
2022/04/08 03:25:12;;;;;;;;;1.00;1.00;;;;;13.90;54.53;99569.56;5011378;28;45532;-82
2022/04/08 03:30:59;;;;;;;;;2.00;1.00;;;;;13.91;54.33;99572.19;5027912;28;45778;-82
2022/04/08 03:33:24;;;;;;;;;1.00;0.00;;;;;13.94;54.98;99571.28;5028012;28;45357;-83
2022/04/08 03:35:50;;;;;;;;;1.00;1.00;;;;;13.93;55.08;99566.81;5012460;28;45566;-83
2022/04/08 03:38:15;;;;;;;;;1.00;1.00;;;;;13.88;55.13;99569.59;5012161;28;47194;-83
2022/04/08 03:40:42;;;;;;;;;2.00;2.00;;;;;13.93;55.92;99559.69;5030364;28;45402;-82
2022/04/08 03:43:09;;;;;;;;;1.00;1.00;;;;;13.74;56.37;99548.44;5030692;28;44785;-82
2022/04/08 03:45:34;;;;;;;;;2.00;2.00;;;;;13.63;57.21;99531.72;5013494;28;45916;-82
2022/04/08 03:47:59;;;;;;;;;1.67;1.00;;;;;13.64;57.71;99537.97;5029229;28;45513;-81
2022/04/08 03:50:25;;;;;;;;;1.67;0.00;;;;;13.62;58.06;99537.13;5008150;28;45400;-82
2022/04/08 03:52:50;;;;;;;;;2.00;0.00;;;;;13.55;59.74;99528.31;5026416;28;45867;-83
2022/04/08 03:55:17;;;;;;;;;4.00;1.00;;;;;13.51;60.18;99523.94;5007696;28;45504;-83
2022/04/08 03:57:42;;;;;;;;;3.00;0.00;;;;;13.38;60.93;99505.44;5043529;28;45851;-82
2022/04/08 04:00:08;;;;;;;;;0.33;0.33;;;;;13.39;61.81;99506.31;5028820;28;45362;-82
2022/04/08 04:02:35;;;;;;;;;1.00;1.00;;;;;13.33;62.34;99498.41;5047316;28;45358;-82
2022/04/08 04:05:01;;;;;;;;;3.00;3.00;;;;;13.29;62.64;99504.69;5030025;28;46056;-82
2022/04/08 04:07:28;;;;;;;;;2.00;1.33;;;;;13.38;62.25;99500.09;5027958;28;46843;-81
2022/04/08 04:09:54;;;;;;;;;1.00;1.00;;;;;13.30;63.13;99496.69;5046203;28;45741;-82
2022/04/08 04:12:20;;;;;;;;;2.33;2.00;;;;;13.19;63.90;99479.97;5027876;28;45542;-82
2022/04/08 04:14:45;;;;;;;;;2.00;2.00;;;;;13.13;63.39;99480.94;5028136;28;45533;-82
2022/04/08 04:17:11;;;;;;;;;2.67;2.67;;;;;13.18;63.86;99486.19;5028143;28;48300;-82
2022/04/08 04:22:58;;;;;;;;;0.00;0.00;;;;;13.08;64.38;99469.44;5049223;28;45536;-81
2022/04/08 04:25:23;;;;;;;;;1.00;1.00;;;;;13.06;65.03;99468.56;5030785;28;45419;-82
2022/04/08 04:27:49;;;;;;;;;1.00;1.00;;;;;13.04;64.95;99465.06;5031325;28;46835;-82
2022/04/08 04:30:14;;;;;;;;;1.67;1.67;;;;;13.02;64.51;99454.41;5048362;28;45864;-82
2022/04/08 04:32:40;;;;;;;;;0.67;0.67;;;;;13.07;65.46;99451.69;5031309;28;45523;-82
2022/04/08 04:35:08;;;;;;;;;1.33;1.33;;;;;13.05;65.79;99442.81;5050385;28;45476;-82
2022/04/08 04:37:37;;;;;;;;;1.00;1.00;;;;;13.08;65.85;99442.75;5028247;28;48006;-82
2022/04/08 04:40:04;;;;;;;;;3.00;2.00;;;;;13.04;66.18;99432.16;5046103;28;45729;-82
2022/04/08 04:42:30;;;;;;;;;2.00;1.00;;;;;13.01;66.37;99439.31;5029260;28;44904;-83
2022/04/08 04:44:57;;;;;;;;;1.33;1.33;;;;;13.01;66.58;99431.31;5029646;28;45532;-83
2022/04/08 04:47:23;;;;;;;;;1.00;1.00;;;;;12.98;66.67;99426.00;5046471;28;45620;-83
2022/04/08 04:49:49;;;;;;;;;1.67;0.67;;;;;12.90;66.82;99406.56;5013747;28;45499;-83
2022/04/08 04:52:14;;;;;;;;;2.00;0.67;;;;;12.94;66.82;99399.41;5008287;28;45405;-82
2022/04/08 04:54:41;;;;;;;;;2.33;1.67;;;;;12.90;66.75;99393.22;5007651;28;45348;-82
2022/04/08 04:57:06;;;;;;;;;3.67;1.00;;;;;12.90;67.25;99393.22;5031657;28;47169;-81
2022/04/08 04:59:32;;;;;;;;;4.33;2.67;;;;;12.86;66.96;99364.84;5027028;28;45435;-82
2022/04/08 05:01:57;;;;;;;;;1.67;1.67;;;;;12.91;67.18;99365.66;5025351;28;44967;-82
2022/04/08 05:04:22;;;;;;;;;3.00;3.00;;;;;12.96;66.88;99373.56;5025412;28;45842;-82
2022/04/08 05:06:48;;;;;;;;;2.00;2.00;;;;;12.91;66.41;99362.13;5026327;28;46020;-82
2022/04/08 05:09:13;;;;;;;;;1.00;1.00;;;;;12.94;66.50;99360.25;5026089;28;45424;-84
2022/04/08 05:11:39;;;;;;;;;1.00;1.00;;;;;12.94;66.00;99356.69;5022137;28;45425;-82
2022/04/08 05:14:04;;;;;;;;;5.33;2.00;;;;;12.88;66.84;99340.81;5022884;28;45445;-82
2022/04/08 05:16:30;;;;;;;;;1.00;1.00;;;;;12.90;66.62;99342.53;5024214;28;45454;-82
2022/04/08 05:18:56;;;;;;;;;6.33;2.33;;;;;12.89;65.74;99330.09;5023765;28;45404;-83
2022/04/08 05:21:23;;;;;;;;;2.00;1.00;;;;;13.06;64.78;99321.78;5025826;28;45472;-82
2022/04/08 05:23:49;;;;;;;;;2.00;1.00;;;;;12.99;64.31;99323.69;5025385;28;45412;-82
2022/04/08 05:26:15;;;;;;;;;3.00;3.00;;;;;13.08;64.24;99319.09;5023403;28;47002;-82
2022/04/08 05:28:41;;;;;;;;;6.33;4.67;;;;;12.98;65.01;99318.38;5025330;28;45359;-82
2022/04/08 05:31:06;;;;;;;;;5.33;5.33;;;;;12.97;65.27;99309.50;5025897;28;45314;-82
2022/04/08 05:33:35;;;;;;;;;6.67;3.67;;;;;13.15;66.11;99299.41;5028489;28;45614;-82
2022/04/08 05:36:00;;;;;;;;;2.33;2.33;;;;;12.90;66.24;99299.84;5028491;28;45431;-82
2022/04/08 05:38:26;;;;;;;;;1.33;1.33;;;;;12.80;66.70;99290.25;5025954;28;45572;-82
2022/04/08 05:40:51;;;;;;;;;3.67;2.67;;;;;12.78;67.42;99289.38;5027230;28;45505;-82
2022/04/08 05:43:16;;;;;;;;;4.00;1.00;;;;;12.68;68.16;99285.13;5027427;28;45404;-82
2022/04/08 05:45:43;;;;;;;;;3.00;3.00;;;;;12.74;68.97;99277.03;5027047;28;45911;-82
2022/04/08 05:48:08;;;;;;;;;1.33;1.33;;;;;12.57;69.76;99280.88;5026517;28;45457;-81
2022/04/08 05:50:34;;;;;;;;;2.67;1.33;;;;;12.42;71.28;99254.47;5028187;28;45425;-82
2022/04/08 05:53:00;;;;;;;;;2.00;2.00;;;;;12.49;72.02;99268.59;5027351;28;45391;-81
2022/04/08 05:55:26;;;;;;;;;4.00;1.00;;;;;12.40;71.77;99266.94;5027132;28;46141;-81
2022/04/08 05:57:56;;;;;;;;;2.67;2.33;;;;;12.33;72.24;99257.31;5042238;28;45368;-81
2022/04/08 06:00:23;;;;;;;;;3.00;2.00;;;;;12.32;72.56;99244.88;5028627;28;45554;-80
2022/04/08 06:02:49;;;;;;;;;3.00;2.00;;;;;12.20;72.56;99238.84;5028527;28;45391;-82
2022/04/08 06:05:18;;;;;;;;;1.00;1.00;;;;;12.35;73.31;99247.50;5045905;28;45493;-84
2022/04/08 06:11:05;;;;;;;;;1.00;1.00;;;;;12.16;74.50;99230.94;5046466;28;45380;-84
2022/04/08 06:13:31;;;;;;;;;2.33;2.33;;;;;12.17;74.41;99224.69;5046496;28;45361;-83
2022/04/08 06:15:56;;;;;;;;;4.00;2.00;;;;;12.11;77.06;99212.34;5046080;28;45965;-83
2022/04/08 06:18:22;;;;;;;;;1.00;1.00;;;;;12.13;76.68;99215.84;5027531;28;45729;-83
2022/04/08 06:20:49;;;;;;;;;1.00;1.00;;;;;12.14;77.27;99206.06;5045142;28;45447;-83
2022/04/08 06:23:14;;;;;;;;;3.00;1.00;;;;;11.97;75.43;99193.03;5044790;28;45465;-83
2022/04/08 06:25:40;;;;;;;;;1.67;1.00;;;;;12.04;76.12;99201.81;5044715;28;45979;-83
2022/04/08 06:28:07;;;;;;;;;2.00;2.00;;;;;12.06;76.22;99187.56;5045435;28;45496;-84
2022/04/08 06:30:41;;;;;;;;;1.00;1.00;;;;;12.19;75.48;99189.09;5021506;28;45436;-83
2022/04/08 06:33:08;;;;;;;;;5.33;2.00;;;;;12.15;75.44;99184.72;5042174;28;45430;-84
2022/04/08 06:35:34;;;;;;;;;2.67;1.00;;;;;12.01;75.69;99173.44;5047013;28;45485;-85
2022/04/08 06:38:02;;;;;;;;;1.00;1.00;;;;;12.04;75.63;99173.41;5030230;28;45687;-83
2022/04/08 06:40:28;;;;;;;;;1.00;1.00;;;;;12.05;75.87;99175.13;5030560;28;45512;-83
2022/04/08 06:42:59;;;;;;;;;6.00;2.00;;;;;11.99;74.99;99172.59;5031115;28;45419;-84
2022/04/08 06:45:26;;;;;;;;;3.00;3.00;;;;;11.98;75.38;99155.72;5050771;28;45494;-83
2022/04/08 06:47:53;;;;;;;;;1.00;1.00;;;;;12.10;75.16;99183.94;5050674;28;45313;-83
2022/04/08 06:50:20;;;;;;;;;1.67;1.67;;;;;12.05;75.92;99164.47;5034002;28;45383;-84
2022/04/08 06:52:46;;;;;;;;;3.00;3.00;;;;;12.20;75.49;99182.00;5050089;28;45500;-83
2022/04/08 06:55:13;;;;;;;;;3.00;3.00;;;;;12.27;73.89;99174.78;5047604;28;46245;-84
2022/04/08 06:57:39;;;;;;;;;2.00;2.00;;;;;12.28;71.69;99171.19;5043119;28;45390;-85
2022/04/08 07:00:11;;;;;;;;;2.00;0.00;;;;;12.39;69.18;99174.53;5018963;28;44756;-84
2022/04/08 07:02:37;;;;;;;;;1.00;1.00;;;;;12.20;69.50;99174.00;5014344;28;45525;-84
2022/04/08 07:05:03;;;;;;;;;1.33;1.33;;;;;12.18;69.78;99174.03;5013779;28;48402;-82
2022/04/08 07:10:51;;;;;;;;;2.00;2.00;;;;;12.27;70.27;99161.44;5014419;28;45323;-82
2022/04/08 07:13:17;;;;;;;;;17.67;15.33;;;;;12.16;70.40;99154.53;5014169;28;44980;-82
2022/04/08 07:15:44;;;;;;;;;5.67;4.00;;;;;12.27;70.13;99143.66;5032730;28;45351;-84
2022/04/08 07:18:12;;;;;;;;;1.00;1.00;;;;;12.28;69.48;99133.88;5015188;28;45423;-82
2022/04/08 07:20:41;;;;;;;;;1.00;1.00;;;;;12.26;69.09;99114.34;5030527;28;45484;-82
2022/04/08 07:23:08;;;;;;;;;1.00;1.00;;;;;12.14;70.28;99127.03;5014656;28;45882;-82
2022/04/08 07:25:33;;;;;;;;;1.33;1.33;;;;;11.82;71.61;99120.44;5028277;28;45449;-81
2022/04/08 07:27:59;;;;;;;;;2.00;2.00;;;;;11.89;72.39;99131.03;5028475;28;45412;-81
2022/04/08 07:30:25;;;;;;;;;0.67;0.67;;;;;11.89;70.83;99121.25;5030331;28;45361;-82
2022/04/08 07:32:52;;;;;;;;;1.67;1.67;;;;;11.84;71.04;99116.88;5030938;28;45367;-82
2022/04/08 07:35:23;;;;;;;;;1.67;1.00;;;;;11.90;70.71;99098.16;5030737;28;46250;-82
2022/04/08 07:37:49;;;;;;;;;1.67;1.00;;;;;11.75;70.40;99083.28;5013554;28;45479;-84
2022/04/08 07:40:15;;;;;;;;;1.00;1.00;;;;;11.75;70.83;99085.94;5013703;28;45422;-82
2022/04/08 07:42:41;;;;;;;;;3.00;1.00;;;;;11.65;71.30;99068.38;5012395;28;45371;-85
2022/04/08 07:45:08;;;;;;;;;0.00;0.00;;;;;11.65;73.84;99057.72;4996466;28;46775;-83
2022/04/08 07:47:39;;;;;;;;;2.00;2.00;;;;;11.48;76.30;99056.22;4999835;28;45500;-81
2022/04/08 07:50:11;;;;;;;;;0.00;0.00;;;;;11.59;76.02;99048.03;4998297;28;44923;-81
2022/04/08 07:52:53;;;;;;;;;1.00;0.00;;;;;11.54;74.82;99045.47;5019223;28;44828;-82
2022/04/08 07:55:20;;;;;;;;;1.67;1.67;;;;;11.28;75.28;99037.91;4996571;28;47286;-82
2022/04/08 07:58:04;;;;;;;;;3.33;1.67;;;;;11.47;75.40;99019.84;5021336;28;45537;-82
2022/04/08 08:00:31;;;;;;;;;1.00;1.00;;;;;11.30;77.75;99016.59;5002555;28;45641;-80
2022/04/08 08:02:57;;;;;;;;;1.33;1.33;;;;;11.22;79.42;99008.75;4996533;28;44930;-80
2022/04/08 08:05:23;;;;;;;;;3.33;2.33;;;;;11.25;80.00;99000.72;5011146;28;46846;-81
2022/04/08 08:07:57;;;;;;;;;1.67;1.67;;;;;11.42;78.38;98997.75;5031053;28;45617;-82
2022/04/08 08:13:45;;;;;;;;;3.67;3.00;;;;;11.31;78.09;98989.97;5027464;28;45432;-83
2022/04/08 08:16:10;;;;;;;;;5.33;3.00;;;;;11.28;80.16;99003.31;5011198;28;47076;-81
2022/04/08 08:18:41;;;;;;;;;7.67;4.33;;;;;11.40;79.85;98992.47;5035201;28;45336;-82
2022/04/08 08:21:09;;;;;;;;;6.00;6.00;;;;;11.32;80.84;98970.44;5037818;28;44813;-82
2022/04/08 08:23:34;;;;;;;;;8.67;3.00;;;;;11.12;80.31;98919.34;5033575;28;45554;-82
2022/04/08 08:26:01;;;;;;;;;2.00;2.00;;;;;11.32;85.98;98940.28;5016562;28;46866;-82
2022/04/08 08:28:27;;;;;;;;;6.33;3.33;;;;;11.23;85.46;98951.97;5015464;28;45412;-82
2022/04/08 08:30:53;;;;;;;;;8.33;6.67;;;;;11.39;83.48;98976.50;5016097;28;45405;-82
2022/04/08 08:33:18;;;;;;;;;0.67;0.67;;;;;11.36;77.44;98966.81;5031739;28;45451;-82
2022/04/08 08:35:45;;;;;;;;;1.00;1.00;;;;;11.11;78.35;98922.91;5010933;28;46928;-80
2022/04/08 08:38:11;;;;;;;;;1.00;1.00;;;;;11.12;81.69;98944.16;5011727;28;45379;-81
2022/04/08 08:40:36;;;;;;;;;1.00;1.00;;;;;10.94;86.20;98931.16;5012317;28;44888;-81
2022/04/08 08:43:03;;;;;;;;;2.00;1.00;;;;;10.86;94.86;98920.66;5030420;28;45390;-82
2022/04/08 08:45:32;;;;;;;;;1.00;1.00;;;;;10.70;94.74;98914.69;5029593;28;45294;-81
2022/04/08 08:48:03;;;;;;;;;1.67;1.67;;;;;11.07;95.56;98926.50;5029502;28;45387;-80
2022/04/08 08:50:30;;;;;;;;;2.33;1.00;;;;;10.86;96.49;98918.00;5007387;28;45420;-81
2022/04/08 08:52:57;;;;;;;;;3.00;1.00;;;;;10.70;98.04;98895.22;4995183;28;45396;-81
2022/04/08 08:55:24;;;;;;;;;1.00;1.00;;;;;10.75;97.80;98901.34;5030093;28;45936;-80
2022/04/08 08:57:51;;;;;;;;;1.00;1.00;;;;;10.68;100.00;98900.56;5029192;28;45486;-81
2022/04/08 09:00:24;;;;;;;;;3.00;1.00;;;;;10.85;100.00;98879.03;5029807;28;45415;-80
2022/04/08 09:02:50;;;;;;;;;2.00;2.00;;;;;10.70;100.00;98858.00;5028512;28;45461;-82
2022/04/08 09:05:21;;;;;;;;;2.33;1.00;;;;;10.68;100.00;98843.84;5010230;28;47353;-81
2022/04/08 09:08:16;;;;;;;;;0.00;0.00;;;;;10.65;100.00;98865.19;5026156;28;45531;-80
2022/04/08 09:10:44;;;;;;;;;1.00;1.00;;;;;10.46;100.00;98852.16;5011243;28;45446;-80
2022/04/08 09:13:10;;;;;;;;;3.00;2.00;;;;;10.39;100.00;98854.06;5025644;28;45472;-81
2022/04/08 09:15:39;;;;;;;;;1.00;1.00;;;;;10.41;100.00;98840.75;5026085;28;46872;-81
2022/04/08 09:18:14;;;;;;;;;0.67;0.67;;;;;10.43;100.00;98823.00;5027898;28;44841;-80
2022/04/08 09:20:45;;;;;;;;;0.00;0.00;;;;;10.26;100.00;98830.31;5027468;28;45523;-81
2022/04/08 09:23:14;;;;;;;;;0.00;0.00;;;;;10.11;100.00;98834.97;5012370;28;45409;-81
2022/04/08 09:25:40;;;;;;;;;0.67;0.67;;;;;9.96;100.00;98840.50;5013127;28;46927;-81
2022/04/08 09:28:08;;;;;;;;;0.00;0.00;;;;;9.89;100.00;98831.72;5029279;28;45734;-81
2022/04/08 09:30:34;;;;;;;;;2.00;1.00;;;;;9.75;100.00;98866.44;5029260;28;45445;-81
2022/04/08 09:33:23;;;;;;;;;0.00;0.00;;;;;10.05;100.00;98917.38;5030247;28;44833;-80
2022/04/08 09:35:54;;;;;;;;;0.33;0.33;;;;;10.01;100.00;98899.72;5025186;28;47427;-80
2022/04/08 09:38:22;;;;;;;;;2.00;2.00;;;;;9.96;100.00;98857.31;5026034;28;45548;-80
2022/04/08 09:40:48;;;;;;;;;2.00;2.00;;;;;9.80;100.00;98848.69;5024594;28;45699;-81
2022/04/08 09:43:16;;;;;;;;;2.00;2.00;;;;;11.65;100.00;98856.22;5024107;28;45442;-80
2022/04/08 09:45:46;;;;;;;;;2.00;2.00;;;;;11.62;100.00;98872.28;5024316;28;48170;-81
2022/04/08 09:48:11;;;;;;;;;5.67;4.67;;;;;11.49;100.00;98892.03;5025505;28;45409;-80
2022/04/08 09:50:39;;;;;;;;;1.33;1.33;;;;;11.66;100.00;98876.63;5027176;28;45705;-81
2022/04/08 09:53:06;;;;;;;;;6.67;4.33;;;;;11.33;100.00;98860.41;5029235;28;45420;-80
2022/04/08 09:55:35;;;;;;;;;2.00;2.00;;;;;11.50;100.00;98861.88;5027227;28;47002;-81
2022/04/08 09:58:05;;;;;;;;;2.00;1.00;;;;;11.48;100.00;98867.22;5021817;28;45795;-80
2022/04/08 10:00:32;;;;;;;;;1.00;1.00;;;;;11.40;100.00;98877.13;5022215;28;45510;-80
2022/04/08 10:03:00;;;;;;;;;1.00;1.00;;;;;11.44;100.00;98893.94;5029484;28;45874;-79
2022/04/08 10:05:33;;;;;;;;;3.67;3.00;;;;;11.21;100.00;98927.19;5024735;28;46376;-81
2022/04/08 10:08:00;;;;;;;;;2.00;2.00;;;;;11.25;100.00;98915.56;5024185;28;45789;-79
2022/04/08 10:10:44;;;;;;;;;5.00;2.67;;;;;11.37;100.00;98866.53;5026868;28;45401;-80
2022/04/08 10:13:21;;;;;;;;;2.33;2.33;;;;;11.27;100.00;98862.28;5027342;28;44865;-81
2022/04/08 10:15:55;;;;;;;;;2.00;2.00;;;;;11.25;100.00;98873.00;5027040;28;45354;-81
2022/04/08 10:18:21;;;;;;;;;4.00;2.33;;;;;10.88;100.00;98852.34;5005152;28;45504;-81
2022/04/08 10:20:46;;;;;;;;;2.33;2.33;;;;;10.87;100.00;98828.47;5040252;28;45358;-81
2022/04/08 10:23:18;;;;;;;;;1.67;1.67;;;;;10.92;100.00;98815.97;5027822;28;45595;-81
2022/04/08 10:25:48;;;;;;;;;6.33;3.00;;;;;10.99;100.00;98807.84;5024563;28;47725;-80
2022/04/08 10:28:14;;;;;;;;;2.00;2.00;;;;;10.85;100.00;98803.69;5027160;28;45847;-81
2022/04/08 10:30:49;;;;;;;;;4.67;3.33;;;;;11.04;100.00;98782.94;5026943;28;45561;-81
2022/04/08 10:33:26;;;;;;;;;1.67;1.67;;;;;11.00;100.00;98718.28;5028754;28;45516;-82
2022/04/08 10:36:02;;;;;;;;;6.33;5.00;;;;;10.98;100.00;98733.38;5011810;28;47982;-80
2022/04/08 10:38:38;;;;;;;;;5.33;5.00;;;;;11.04;100.00;98757.22;5011802;28;45538;-80
2022/04/08 10:41:08;;;;;;;;;4.33;4.33;;;;;10.80;100.00;98740.81;5029149;28;44755;-81
2022/04/08 10:43:48;;;;;;;;;2.67;1.67;;;;;10.99;100.00;98730.72;5030791;28;45419;-81
2022/04/08 10:46:47;;;;;;;;;;;;;;;;;;;;;
2022/04/08 10:49:12;;;;;;;;;2.00;2.00;;;;;10.71;100.00;98754.28;5027717;28;71999;-81
2022/04/08 10:51:47;;;;;;;;;2.00;2.00;;;;;10.94;100.00;98793.75;5025014;28;45480;-79
2022/04/08 10:54:14;;;;;;;;;4.33;2.00;;;;;10.91;100.00;98785.84;5010343;28;45331;-79
2022/04/08 10:56:43;;;;;;;;;3.67;3.67;;;;;10.65;100.00;98725.16;5024186;28;47431;-80
2022/04/08 10:59:09;;;;;;;;;2.00;2.00;;;;;10.60;100.00;98749.19;5035927;28;45473;-81
2022/04/08 11:01:45;;;;;;;;;5.00;5.00;;;;;10.78;100.00;98797.59;5054617;28;45374;-82
2022/04/08 11:04:11;;;;;;;;;4.33;4.33;;;;;10.56;100.00;98752.81;5037780;28;45288;-82
2022/04/08 11:06:37;;;;;;;;;2.00;2.00;;;;;10.79;100.00;98739.06;5033090;28;45307;-83
2022/04/08 11:09:08;;;;;;;;;5.33;5.00;;;;;10.98;100.00;98725.41;5015023;28;45474;-83
2022/04/08 11:11:36;;;;;;;;;6.67;6.00;;;;;11.05;100.00;98744.78;5048292;28;45397;-82
2022/04/08 11:14:04;;;;;;;;;6.00;4.00;;;;;10.93;100.00;98760.09;5049167;28;44913;-83
2022/04/08 11:16:38;;;;;;;;;5.00;5.00;;;;;11.04;100.00;98749.22;5053076;28;45730;-83
2022/04/08 11:19:09;;;;;;;;;5.00;2.67;;;;;11.03;100.00;98744.81;5036000;28;45459;-82
2022/04/08 11:21:36;;;;;;;;;3.00;3.00;;;;;10.87;100.00;98722.97;5030767;28;44804;-83
2022/04/08 11:24:04;;;;;;;;;5.00;5.00;;;;;10.91;100.00;98719.34;5027545;28;45214;-83
2022/04/08 11:26:39;;;;;;;;;6.00;6.00;;;;;10.92;100.00;98726.41;5029441;28;48481;-84
2022/04/08 11:36:03;;;;;;;;;3.00;3.00;;;;;11.09;100.00;98754.44;5029297;28;45414;-83
2022/04/08 11:38:30;;;;;;;;;6.00;6.00;;;;;10.87;100.00;98727.44;5009561;28;48225;-82
2022/04/08 11:40:56;;;;;;;;;3.00;3.00;;;;;10.75;100.00;98644.31;5010468;28;44869;-83
2022/04/08 11:43:23;;;;;;;;;6.67;6.00;;;;;10.67;100.00;98687.94;5028571;28;45430;-82
2022/04/08 11:45:52;;;;;;;;;6.00;6.00;;;;;10.83;100.00;98694.69;5032096;28;45482;-81
2022/04/08 11:48:20;;;;;;;;;7.00;5.00;;;;;10.71;100.00;98708.22;5031355;28;45981;-82
2022/04/08 11:50:46;;;;;;;;;9.33;8.00;;;;;10.63;100.00;98710.16;5029196;28;45486;-82
2022/04/08 11:53:17;;;;;;;;;8.67;6.33;;;;;10.80;100.00;98697.41;5029835;28;45519;-82
2022/04/08 11:55:59;;;;;;;;;8.67;5.67;;;;;10.90;100.00;98712.25;5030195;28;45413;-84
2022/04/08 11:58:27;;;;;;;;;6.00;5.67;;;;;10.80;100.00;98708.03;5030534;28;46125;-82
2022/04/08 12:01:00;;;;;;;;;5.67;5.67;;;;;10.69;100.00;98708.25;5026924;28;45825;-83
2022/04/08 12:03:28;;;;;;;;;9.33;8.67;;;;;10.86;100.00;98694.63;5011241;28;45259;-83